Time;durP1;ratioP1;P1;durP2;ratioP2;P2;SDS_P1;SDS_P2;PMS_P1;PMS_P2;Temp;Humidity;BMP_temperature;BMP_pressure;BME280_temperature;BME280_humidity;BME280_pressure;Samples;Min_cycle;Max_cycle;Signal;HPM_P1;HPM_P2
2023/04/26 00:01:04;;;;;;;3.67;0.73;;;2.90;99.90;;;;;;4944450;29;20023;-79
2023/04/26 00:03:30;;;;;;;4.60;1.00;;;2.80;99.90;;;;;;4929910;29;20130;-80
2023/04/26 00:05:55;;;;;;;4.28;0.80;;;2.80;99.90;;;;;;4933064;29;20115;-80
2023/04/26 00:08:21;;;;;;;5.72;1.00;;;2.80;99.90;;;;;;4934744;29;20030;-80
2023/04/26 00:10:46;;;;;;;3.60;0.90;;;2.90;99.90;;;;;;4945092;29;20047;-80
2023/04/26 00:13:12;;;;;;;6.72;0.80;;;2.90;99.90;;;;;;4949728;28;20118;-80
2023/04/26 00:15:38;;;;;;;5.18;0.82;;;2.80;99.90;;;;;;4928816;29;20488;-80
2023/04/26 00:18:03;;;;;;;6.72;0.90;;;2.80;99.90;;;;;;4936612;29;20027;-80
2023/04/26 00:20:29;;;;;;;4.22;0.80;;;2.80;99.90;;;;;;4930818;29;20027;-80
2023/04/26 00:22:55;;;;;;;3.05;0.85;;;2.80;99.90;;;;;;4952798;28;20062;-79
2023/04/26 00:25:20;;;;;;;2.95;0.90;;;2.70;99.90;;;;;;4945540;29;20484;-80
2023/04/26 00:27:46;;;;;;;4.35;0.63;;;2.70;99.90;;;;;;4965257;28;20047;-80
2023/04/26 00:30:12;;;;;;;1.88;0.60;;;2.70;99.90;;;;;;4948288;28;20034;-80
2023/04/26 00:32:38;;;;;;;2.40;0.70;;;2.70;99.90;;;;;;4933721;29;20047;-82
2023/04/26 00:35:05;;;;;;;3.63;0.75;;;2.70;99.90;;;;;;4949570;28;20086;-82
2023/04/26 00:37:31;;;;;;;2.53;0.80;;;2.60;99.90;;;;;;4934942;29;20027;-80
2023/04/26 00:39:57;;;;;;;3.35;0.70;;;2.60;99.90;;;;;;4947948;28;20560;-82
2023/04/26 00:42:22;;;;;;;3.17;1.00;;;2.60;99.90;;;;;;4943867;29;20050;-83
2023/04/26 00:44:54;;;;;;;4.68;0.80;;;2.60;99.90;;;;;;4946431;28;20059;-83
2023/04/26 00:47:19;;;;;;;3.85;1.33;;;2.60;99.90;;;;;;4931338;29;20372;-80
2023/04/26 00:49:45;;;;;;;8.18;2.15;;;2.60;99.90;;;;;;4952236;29;20109;-80
2023/04/26 00:52:11;;;;;;;4.88;1.73;;;2.70;99.90;;;;;;4931469;29;20047;-83
2023/04/26 00:54:38;;;;;;;5.47;1.60;;;2.70;99.90;;;;;;4935648;29;20035;-81
2023/04/26 00:57:05;;;;;;;5.72;1.50;;;2.70;99.90;;;;;;4934383;29;20091;-82
2023/04/26 00:59:33;;;;;;;6.63;2.08;;;2.70;99.90;;;;;;4935599;29;20059;-82
2023/04/26 01:01:59;;;;;;;6.40;2.33;;;2.70;99.90;;;;;;4947127;29;20027;-80
2023/04/26 01:04:26;;;;;;;6.90;2.40;;;2.70;99.90;;;;;;4934717;29;20476;-79
2023/04/26 01:06:52;;;;;;;4.85;2.05;;;2.60;99.90;;;;;;4935877;29;20052;-78
2023/04/26 01:09:18;;;;;;;4.25;1.90;;;2.60;99.90;;;;;;4965315;28;20031;-80
2023/04/26 01:11:45;;;;;;;7.40;2.28;;;2.60;99.90;;;;;;4932277;29;20031;-80
2023/04/26 01:14:10;;;;;;;9.10;2.55;;;2.60;99.90;;;;;;4929836;29;20039;-79
2023/04/26 01:16:38;;;;;;;6.90;2.50;;;2.60;99.90;;;;;;4931041;29;20043;-80
2023/04/26 01:19:11;;;;;;;7.60;3.05;;;2.60;99.90;;;;;;4949787;28;20031;-81
2023/04/26 01:21:39;;;;;;;5.80;2.17;;;2.70;99.90;;;;;;4935078;29;20032;-82
2023/04/26 01:24:05;;;;;;;10.10;2.75;;;2.60;99.90;;;;;;4951497;29;20485;-81
2023/04/26 01:26:31;;;;;;;12.15;3.30;;;2.70;99.90;;;;;;4948047;29;20031;-82
2023/04/26 01:28:57;;;;;;;7.65;2.38;;;2.70;99.90;;;;;;4934917;29;20093;-82
2023/04/26 01:31:23;;;;;;;7.50;2.42;;;2.70;99.90;;;;;;4946906;29;20027;-82
2023/04/26 01:33:50;;;;;;;7.15;1.90;;;2.60;99.90;;;;;;4946077;28;20035;-82
2023/04/26 01:36:17;;;;;;;7.28;3.00;;;2.60;99.90;;;;;;4941505;29;20035;-82
2023/04/26 01:38:43;;;;;;;6.43;2.33;;;2.60;99.90;;;;;;4950028;28;20042;-82
2023/04/26 01:41:09;;;;;;;6.65;2.63;;;2.60;99.90;;;;;;4935250;29;20035;-84
2023/04/26 01:43:34;;;;;;;5.43;1.95;;;2.70;99.90;;;;;;4934705;29;20027;-83
2023/04/26 01:46:01;;;;;;;8.27;2.85;;;2.60;99.90;;;;;;4930406;29;20374;-82
2023/04/26 01:48:30;;;;;;;6.15;2.92;;;2.60;99.90;;;;;;4931628;29;20151;-82
2023/04/26 01:50:55;;;;;;;10.38;3.17;;;2.60;99.90;;;;;;4948163;28;20035;-82
2023/04/26 01:53:21;;;;;;;7.55;3.03;;;2.60;99.90;;;;;;4931756;29;20034;-84
2023/04/26 01:55:47;;;;;;;9.10;3.17;;;2.50;99.90;;;;;;4947870;29;20039;-84
2023/04/26 01:58:12;;;;;;;7.15;2.92;;;2.50;99.90;;;;;;4964510;28;20049;-82
2023/04/26 02:00:38;;;;;;;6.15;2.85;;;2.50;99.90;;;;;;4944309;29;20082;-84
2023/04/26 02:03:04;;;;;;;8.52;2.72;;;2.50;99.90;;;;;;4934958;29;20027;-84
2023/04/26 02:05:30;;;;;;;8.07;2.83;;;2.50;99.90;;;;;;4929735;29;20038;-85
2023/04/26 02:07:55;;;;;;;6.57;2.90;;;2.50;99.90;;;;;;4932381;29;20119;-84
2023/04/26 02:10:21;;;;;;;4.57;2.00;;;2.50;99.90;;;;;;4930504;29;20020;-82
2023/04/26 02:12:47;;;;;;;6.47;2.30;;;2.40;99.90;;;;;;4926793;29;20066;-82
2023/04/26 02:15:13;;;;;;;4.22;1.83;;;2.40;99.90;;;;;;4934119;29;20046;-86
2023/04/26 02:17:39;;;;;;;5.30;1.30;;;2.20;99.90;;;;;;4934323;29;20058;-82
2023/04/26 02:20:08;;;;;;;5.05;1.30;;;2.20;99.90;;;;;;4931520;29;20023;-83
2023/04/26 02:22:33;;;;;;;2.20;0.80;;;2.10;99.90;;;;;;4947412;28;20504;-84
2023/04/26 02:24:59;;;;;;;3.47;1.00;;;2.00;99.90;;;;;;4948279;29;20024;-83
2023/04/26 02:27:26;;;;;;;3.35;0.90;;;2.10;99.90;;;;;;4966842;28;20034;-82
2023/04/26 02:29:53;;;;;;;2.15;0.85;;;2.00;99.90;;;;;;4928241;29;20480;-82
2023/04/26 02:32:19;;;;;;;3.25;1.30;;;2.10;99.90;;;;;;4927132;29;20031;-85
2023/04/26 02:34:47;;;;;;;1.92;0.80;;;2.10;99.90;;;;;;4933948;29;20122;-82
2023/04/26 02:37:13;;;;;;;3.95;0.90;;;1.90;99.90;;;;;;4928246;29;20036;-82
2023/04/26 02:39:38;;;;;;;2.60;1.00;;;1.80;99.90;;;;;;4941641;28;20034;-82
2023/04/26 02:42:09;;;;;;;3.00;0.82;;;1.80;99.90;;;;;;4944920;29;20023;-82
2023/04/26 02:44:35;;;;;;;3.20;0.90;;;1.70;99.90;;;;;;4942335;29;20051;-82
2023/04/26 02:47:01;;;;;;;6.13;1.05;;;1.80;99.90;;;;;;4933078;29;20031;-82
2023/04/26 02:49:29;;;;;;;2.25;0.93;;;1.70;99.90;;;;;;4928158;29;20550;-82
2023/04/26 02:51:55;;;;;;;3.08;0.85;;;1.70;99.90;;;;;;4932754;29;20023;-82
2023/04/26 02:54:21;;;;;;;2.30;0.95;;;1.70;99.90;;;;;;4933235;29;20027;-81
2023/04/26 02:56:47;;;;;;;2.80;0.95;;;1.70;99.90;;;;;;4946405;28;20487;-82
2023/04/26 02:59:13;;;;;;;2.67;0.80;;;1.60;99.90;;;;;;4929681;29;20019;-82
2023/04/26 03:01:38;;;;;;;3.58;1.00;;;1.60;99.90;;;;;;4933355;29;20031;-82
2023/04/26 03:04:05;;;;;;;4.70;1.17;;;1.50;99.90;;;;;;4933411;29;20035;-82
2023/04/26 03:06:35;;;;;;;3.80;0.90;;;1.50;99.90;;;;;;4946378;28;20027;-82
2023/04/26 03:09:01;;;;;;;5.43;1.08;;;1.50;99.90;;;;;;4939332;29;20023;-82
2023/04/26 03:11:26;;;;;;;3.17;0.68;;;1.50;99.90;;;;;;4930763;29;20041;-81
2023/04/26 03:13:52;;;;;;;1.98;0.95;;;1.50;99.90;;;;;;4945219;29;20067;-85
2023/04/26 03:16:22;;;;;;;3.35;0.80;;;1.50;99.90;;;;;;4950261;28;20122;-84
2023/04/26 03:18:48;;;;;;;2.90;0.90;;;1.30;99.90;;;;;;4929062;29;20039;-85
2023/04/26 03:21:14;;;;;;;4.00;1.30;;;1.40;99.90;;;;;;4947042;29;20028;-85
2023/04/26 03:23:40;;;;;;;4.20;0.90;;;1.40;99.90;;;;;;4933737;29;20027;-84
2023/04/26 03:26:06;;;;;;;4.32;1.23;;;1.20;99.90;;;;;;4932232;29;20246;-84
2023/04/26 03:28:32;;;;;;;2.22;0.80;;;1.30;99.90;;;;;;4932672;29;20476;-82
2023/04/26 03:30:59;;;;;;;2.55;1.13;;;1.20;99.90;;;;;;4934417;29;20078;-84
2023/04/26 03:33:24;;;;;;;3.17;1.02;;;1.20;99.90;;;;;;4936529;29;20032;-84
2023/04/26 03:35:50;;;;;;;2.47;1.10;;;1.20;99.90;;;;;;4934097;29;20043;-85
2023/04/26 03:38:16;;;;;;;3.10;1.40;;;1.10;99.90;;;;;;4946893;29;20055;-80
2023/04/26 03:40:42;;;;;;;3.05;1.10;;;1.10;99.90;;;;;;4948615;29;20122;-84
2023/04/26 03:43:08;;;;;;;3.03;1.15;;;1.20;99.90;;;;;;4943943;28;20110;-82
2023/04/26 03:45:33;;;;;;;3.95;1.42;;;1.10;99.90;;;;;;4943149;29;20044;-85
2023/04/26 03:47:59;;;;;;;3.15;1.30;;;1.10;99.90;;;;;;4950540;29;20035;-83
2023/04/26 03:50:25;;;;;;;2.78;0.90;;;0.90;99.90;;;;;;4937208;29;20085;-83
2023/04/26 03:52:51;;;;;;;3.47;0.98;;;0.90;99.90;;;;;;4950808;28;20027;-85
2023/04/26 03:55:16;;;;;;;4.90;1.15;;;0.90;99.90;;;;;;4936992;29;20101;-84
2023/04/26 03:57:42;;;;;;;4.22;1.52;;;1.00;99.90;;;;;;4937139;29;20081;-82
2023/04/26 04:00:10;;;;;;;6.43;1.88;;;1.00;99.90;;;;;;4936802;29;20042;-85
2023/04/26 04:02:41;;;;;;;3.22;1.40;;;1.00;99.90;;;;;;4964014;28;20047;-85
2023/04/26 04:05:08;;;;;;;3.28;1.25;;;0.90;99.90;;;;;;4934511;29;20031;-81
2023/04/26 04:07:35;;;;;;;5.30;1.45;;;0.80;99.90;;;;;;4935536;29;20027;-82
2023/04/26 04:10:03;;;;;;;5.07;1.80;;;0.80;99.90;;;;;;4949609;28;20098;-82
2023/04/26 04:12:29;;;;;;;4.45;1.52;;;0.80;99.90;;;;;;4934557;29;20572;-81
2023/04/26 04:14:55;;;;;;;4.95;1.35;;;0.80;99.90;;;;;;4935996;29;20106;-82
2023/04/26 04:17:22;;;;;;;4.32;1.98;;;0.90;99.90;;;;;;4931409;29;20046;-81
2023/04/26 04:19:48;;;;;;;2.97;1.23;;;0.90;99.90;;;;;;4931303;29;20020;-81
2023/04/26 04:22:15;;;;;;;5.10;1.88;;;0.90;99.90;;;;;;4933944;29;20443;-83
2023/04/26 04:24:43;;;;;;;3.45;1.58;;;0.80;99.90;;;;;;4936836;29;20027;-81
2023/04/26 04:27:08;;;;;;;3.90;1.60;;;0.90;99.90;;;;;;4933752;29;20023;-82
2023/04/26 04:29:34;;;;;;;4.53;1.95;;;0.80;99.90;;;;;;4947637;29;20538;-81
2023/04/26 04:32:01;;;;;;;5.57;1.98;;;0.80;99.90;;;;;;4936239;29;20078;-81
2023/04/26 04:34:33;;;;;;;4.50;1.85;;;0.70;99.90;;;;;;4935966;29;20064;-83
2023/04/26 04:36:59;;;;;;;4.75;2.00;;;0.80;99.90;;;;;;4947395;29;20039;-83
2023/04/26 04:39:24;;;;;;;5.32;2.00;;;0.80;99.90;;;;;;4950687;28;20042;-85
2023/04/26 04:41:51;;;;;;;6.03;2.10;;;0.80;99.90;;;;;;4930360;29;20039;-83
2023/04/26 04:44:18;;;;;;;5.28;2.17;;;0.80;99.90;;;;;;4935291;29;20039;-85
2023/04/26 04:46:44;;;;;;;4.72;2.20;;;1.00;99.90;;;;;;4933786;29;20108;-85
2023/04/26 04:49:11;;;;;;;7.65;2.60;;;1.00;99.90;;;;;;4936036;29;20034;-86
2023/04/26 04:51:37;;;;;;;5.18;1.80;;;0.90;99.90;;;;;;4931121;29;20027;-84
2023/04/26 04:54:17;;;;;;;4.22;1.88;;;1.00;99.90;;;;;;4930152;29;20395;-83
2023/04/26 04:56:45;;;;;;;5.60;2.22;;;1.10;99.90;;;;;;4931973;29;20039;-82
2023/04/26 04:59:13;;;;;;;6.55;2.15;;;1.10;99.90;;;;;;4950910;28;20023;-85
2023/04/26 05:01:41;;;;;;;6.40;1.85;;;1.20;99.90;;;;;;4931915;29;20499;-84
2023/04/26 05:04:10;;;;;;;5.55;1.58;;;1.20;99.90;;;;;;4934198;29;20115;-83
2023/04/26 05:06:38;;;;;;;5.40;2.25;;;1.10;99.90;;;;;;4934816;29;20045;-84
2023/04/26 05:09:07;;;;;;;4.95;1.95;;;1.20;99.90;;;;;;4936000;29;20093;-84
2023/04/26 05:11:36;;;;;;;6.53;2.25;;;1.30;99.90;;;;;;4951313;28;20473;-85
2023/04/26 05:14:06;;;;;;;6.38;2.28;;;1.50;99.90;;;;;;4929940;29;20828;-83
2023/04/26 05:16:32;;;;;;;4.05;1.88;;;1.50;99.90;;;;;;4933503;29;20147;-85
2023/04/26 05:19:00;;;;;;;3.58;1.60;;;1.60;99.90;;;;;;4932015;29;20019;-86
2023/04/26 05:21:28;;;;;;;4.72;1.85;;;1.60;99.90;;;;;;4947756;28;21174;-82
2023/04/26 05:23:56;;;;;;;;;;;1.70;99.90;;;;;;4946671;29;20032;-85
2023/04/26 05:26:22;;;;;;;3.97;1.48;;;1.80;99.90;;;;;;4932526;29;19962;-85
2023/04/26 05:28:50;;;;;;;4.03;1.52;;;1.80;99.90;;;;;;4950748;28;20126;-83
2023/04/26 05:31:22;;;;;;;3.40;1.65;;;2.00;99.90;;;;;;4950075;29;20036;-82
2023/04/26 05:34:04;;;;;;;4.20;1.60;;;2.00;99.90;;;;;;4946078;29;20044;-83
2023/04/26 05:36:36;;;;;;;5.53;2.72;;;2.10;99.90;;;;;;4945154;28;20118;-83
2023/04/26 05:39:04;;;;;;;5.30;1.83;;;2.20;99.90;;;;;;4949610;28;20026;-81
2023/04/26 05:41:30;;;;;;;5.25;1.85;;;2.30;99.90;;;;;;4931499;29;20027;-85
2023/04/26 05:43:56;;;;;;;7.53;3.72;;;2.40;99.90;;;;;;4947474;29;20075;-86
2023/04/26 05:46:21;;;;;;;13.38;5.57;;;2.70;99.90;;;;;;4933143;29;20059;-84
2023/04/26 05:48:48;;;;;;;8.88;4.63;;;3.00;99.90;;;;;;4928836;29;20024;-82
2023/04/26 05:51:13;;;;;;;12.77;5.18;;;3.10;99.90;;;;;;4929863;29;20123;-83
2023/04/26 05:53:40;;;;;;;13.52;6.18;;;3.20;99.90;;;;;;4931598;29;20470;-82
2023/04/26 05:56:06;;;;;;;14.23;7.15;;;3.30;99.90;;;;;;4948767;29;20039;-82
2023/04/26 05:58:33;;;;;;;12.85;6.53;;;3.50;99.90;;;;;;4947757;28;20267;-82
2023/04/26 06:00:59;;;;;;;12.20;5.47;;;3.50;99.90;;;;;;4935854;29;20464;-83
2023/04/26 06:03:25;;;;;;;15.32;5.88;;;3.70;99.90;;;;;;4939228;29;20059;-83
2023/04/26 06:05:52;;;;;;;13.00;6.30;;;3.90;99.90;;;;;;4929190;29;20115;-85
2023/04/26 06:08:20;;;;;;;10.07;6.00;;;3.90;99.90;;;;;;4934537;29;20076;-85
2023/04/26 06:10:48;;;;;;;14.32;5.32;;;4.10;99.90;;;;;;4928590;29;20111;-84
2023/04/26 06:13:14;;;;;;;15.82;6.30;;;4.30;99.90;;;;;;4950744;28;20110;-85
2023/04/26 06:15:39;;;;;;;8.43;4.85;;;4.40;99.90;;;;;;4933311;29;20126;-85
2023/04/26 06:18:05;;;;;;;9.00;4.60;;;4.60;99.90;;;;;;4950302;29;20027;-85
2023/04/26 06:20:31;;;;;;;11.75;5.50;;;4.80;99.90;;;;;;4930765;29;20023;-83
2023/04/26 06:22:57;;;;;;;8.93;4.40;;;5.00;99.90;;;;;;4924367;29;20122;-83
2023/04/26 06:25:23;;;;;;;9.60;4.28;;;5.10;99.90;;;;;;4946706;28;20111;-85
2023/04/26 06:27:49;;;;;;;8.32;3.90;;;5.30;99.90;;;;;;4946419;28;20039;-84
2023/04/26 06:30:14;;;;;;;11.60;4.60;;;5.60;99.90;;;;;;4930124;29;20023;-84
2023/04/26 06:32:44;;;;;;;10.38;4.68;;;5.60;99.90;;;;;;4940457;29;20039;-85
2023/04/26 06:35:10;;;;;;;10.55;5.13;;;5.80;99.90;;;;;;4930080;29;20077;-85
2023/04/26 06:37:37;;;;;;;11.30;4.90;;;6.10;99.90;;;;;;4947248;29;20038;-84
2023/04/26 06:40:05;;;;;;;10.02;4.13;;;6.10;99.90;;;;;;4934025;29;20029;-84
2023/04/26 06:42:31;;;;;;;7.32;4.00;;;6.20;99.90;;;;;;4934205;29;20043;-84
2023/04/26 06:45:15;;;;;;;12.63;5.30;;;6.30;99.90;;;;;;4946048;28;20170;-83
2023/04/26 06:47:43;;;;;;;7.53;3.17;;;6.40;99.90;;;;;;4947152;28;20035;-84
2023/04/26 06:50:09;;;;;;;7.18;3.30;;;6.50;99.90;;;;;;4945580;29;20027;-85
2023/04/26 06:52:35;;;;;;;7.32;2.88;;;6.50;99.90;;;;;;4965211;28;20080;-84
2023/04/26 06:55:02;;;;;;;5.95;2.35;;;6.50;99.90;;;;;;4943501;29;20166;-84
2023/04/26 06:57:28;;;;;;;7.38;2.42;;;6.40;99.90;;;;;;4946000;29;20046;-85
2023/04/26 06:59:53;;;;;;;10.20;2.78;;;6.40;99.90;;;;;;4944383;28;20030;-83
2023/04/26 07:02:19;;;;;;;6.90;2.40;;;6.40;99.90;;;;;;4934092;29;20412;-84
2023/04/26 07:04:45;;;;;;;6.53;2.10;;;6.30;99.90;;;;;;4926511;29;20031;-84
2023/04/26 07:07:11;;;;;;;7.03;2.22;;;6.60;99.90;;;;;;4943235;29;20474;-84
2023/04/26 07:09:37;;;;;;;6.63;2.83;;;6.80;99.90;;;;;;4927926;29;20038;-84
2023/04/26 07:12:02;;;;;;;7.50;3.15;;;6.60;99.90;;;;;;4930014;29;20495;-84
2023/04/26 07:14:28;;;;;;;11.05;2.72;;;6.60;99.90;;;;;;4947094;29;20492;-84
2023/04/26 07:16:57;;;;;;;8.63;3.58;;;6.80;99.90;;;;;;4930572;29;20070;-84
2023/04/26 07:19:23;;;;;;;8.80;3.65;;;7.00;99.90;;;;;;4945195;29;20078;-84
2023/04/26 07:21:48;;;;;;;9.57;2.70;;;7.00;99.90;;;;;;4929874;29;20039;-84
2023/04/26 07:24:14;;;;;;;8.05;2.30;;;7.00;99.90;;;;;;4940172;29;20031;-84
2023/04/26 07:26:40;;;;;;;4.10;1.65;;;7.40;99.90;;;;;;4933616;29;20114;-85
2023/04/26 07:29:06;;;;;;;8.35;2.17;;;7.50;99.90;;;;;;4947982;29;20027;-84
2023/04/26 07:31:31;;;;;;;7.60;2.53;;;7.40;99.90;;;;;;4947975;29;20130;-84
2023/04/26 07:34:00;;;;;;;5.50;1.80;;;7.40;99.90;;;;;;4931939;29;20115;-82
2023/04/26 07:36:26;;;;;;;5.20;0.85;;;7.20;99.90;;;;;;4942775;29;20039;-84
2023/04/26 07:38:52;;;;;;;10.63;1.67;;;7.20;99.90;;;;;;4944798;28;20499;-84
2023/04/26 07:41:18;;;;;;;6.70;1.38;;;7.20;99.90;;;;;;4924664;29;20433;-84
2023/04/26 07:43:43;;;;;;;4.93;1.38;;;7.60;99.90;;;;;;4937742;28;20020;-85
2023/04/26 07:46:09;;;;;;;11.60;2.30;;;7.60;99.90;;;;;;4933342;29;20135;-85
2023/04/26 07:48:35;;;;;;;6.28;2.10;;;7.60;99.90;;;;;;4946601;29;20595;-84
2023/04/26 07:51:09;;;;;;;2.65;0.60;;;7.70;99.90;;;;;;4944508;29;20035;-83
2023/04/26 07:53:35;;;;;;;3.97;0.50;;;7.60;99.90;;;;;;4945553;29;20031;-85
2023/04/26 07:56:03;;;;;;;7.28;1.20;;;7.60;99.90;;;;;;4948707;29;20032;-84
2023/04/26 07:58:29;;;;;;;5.60;1.00;;;7.90;99.90;;;;;;4944503;29;20085;-84
2023/04/26 08:00:54;;;;;;;3.35;0.60;;;7.80;99.90;;;;;;4945717;29;20110;-84
2023/04/26 08:03:20;;;;;;;5.50;0.60;;;7.50;99.90;;;;;;4945061;29;20027;-84
2023/04/26 08:05:46;;;;;;;3.50;0.77;;;7.70;99.90;;;;;;4946853;28;20525;-84
2023/04/26 08:08:11;;;;;;;3.47;0.70;;;7.90;99.90;;;;;;4932781;29;20027;-86
2023/04/26 08:10:40;;;;;;;3.65;0.60;;;8.00;99.90;;;;;;4944850;29;20054;-86
2023/04/26 08:13:06;;;;;;;3.10;0.68;;;8.20;99.90;;;;;;4946991;28;20098;-84
2023/04/26 08:15:32;;;;;;;5.60;0.60;;;8.00;99.90;;;;;;4929059;29;20031;-86
2023/04/26 08:17:58;;;;;;;2.67;0.40;;;7.90;99.90;;;;;;4932494;29;20473;-84
2023/04/26 08:20:24;;;;;;;4.53;0.50;;;7.80;99.90;;;;;;4931901;29;20031;-85
2023/04/26 08:22:54;;;;;;;3.22;0.80;;;7.80;99.90;;;;;;4932941;29;20428;-84
2023/04/26 08:25:20;;;;;;;2.40;0.60;;;7.70;99.90;;;;;;4931260;29;20027;-84
2023/04/26 08:27:46;;;;;;;5.75;0.73;;;8.10;99.90;;;;;;4926740;29;20515;-86
2023/04/26 08:30:12;;;;;;;6.43;0.70;;;8.10;99.90;;;;;;4933464;29;20033;-87
2023/04/26 08:32:37;;;;;;;3.78;1.13;;;7.90;99.90;;;;;;4948559;28;20027;-84
2023/04/26 08:35:03;;;;;;;3.78;0.70;;;7.90;99.90;;;;;;4936483;29;20028;-84
2023/04/26 08:37:29;;;;;;;3.40;0.60;;;7.90;99.90;;;;;;4935037;29;20488;-85
2023/04/26 08:39:55;;;;;;;3.42;0.55;;;7.80;99.90;;;;;;4948803;28;20023;-84
2023/04/26 08:42:25;;;;;;;2.58;0.50;;;7.90;99.90;;;;;;4951482;29;20039;-85
2023/04/26 08:44:52;;;;;;;4.43;0.70;;;8.00;99.90;;;;;;4951624;29;20050;-84
2023/04/26 08:47:23;;;;;;;3.40;0.70;;;8.00;99.90;;;;;;4951571;28;20067;-85
2023/04/26 08:49:58;;;;;;;6.35;0.93;;;8.30;99.90;;;;;;4947160;29;20043;-84
2023/04/26 08:52:27;;;;;;;4.43;0.90;;;8.00;99.90;;;;;;4949642;29;20103;-84
2023/04/26 08:54:55;;;;;;;4.90;0.40;;;8.20;99.90;;;;;;4951217;28;20050;-87
2023/04/26 08:57:22;;;;;;;3.58;0.60;;;8.40;99.90;;;;;;4950203;29;20035;-85
2023/04/26 08:59:50;;;;;;;4.32;0.85;;;8.20;99.90;;;;;;4958050;28;20027;-85
2023/04/26 09:02:21;;;;;;;4.53;0.65;;;8.30;99.90;;;;;;4950275;29;20031;-86
2023/04/26 09:04:48;;;;;;;5.05;0.60;;;8.10;99.90;;;;;;4935450;29;20063;-85
2023/04/26 09:07:25;;;;;;;2.90;0.40;;;8.10;99.90;;;;;;4930882;29;20036;-85
2023/04/26 09:09:53;;;;;;;3.53;0.45;;;8.30;99.90;;;;;;4938910;29;20023;-82
2023/04/26 09:12:22;;;;;;;2.85;0.60;;;8.30;99.90;;;;;;4930584;29;20031;-83
2023/04/26 09:14:48;;;;;;;3.83;0.60;;;8.20;99.90;;;;;;4931090;29;20023;-82
2023/04/26 09:17:32;;;;;;;1.75;0.40;;;8.30;99.90;;;;;;4947441;29;20260;-84
2023/04/26 09:20:15;;;;;;;2.67;0.38;;;8.20;99.90;;;;;;4931732;29;20118;-84
2023/04/26 09:22:41;;;;;;;3.97;0.50;;;8.30;99.90;;;;;;4941437;28;20028;-85
2023/04/26 09:25:07;;;;;;;1.63;0.50;;;8.30;99.90;;;;;;4934580;29;20037;-83
2023/04/26 09:27:35;;;;;;;4.60;0.60;;;8.20;99.90;;;;;;4947404;29;22079;-83
2023/04/26 09:30:09;;;;;;;2.40;0.40;;;8.40;99.90;;;;;;4931875;29;20031;-82
2023/04/26 09:32:55;;;;;;;3.90;0.50;;;9.20;99.90;;;;;;4946510;29;20039;-82
2023/04/26 09:35:22;;;;;;;3.22;0.60;;;8.70;99.90;;;;;;4931072;29;20035;-83
2023/04/26 09:38:02;;;;;;;4.57;0.70;;;8.50;99.90;;;;;;4932043;29;20046;-83
2023/04/26 09:40:30;;;;;;;4.40;0.60;;;8.70;99.90;;;;;;4946434;28;20050;-84
2023/04/26 09:43:05;;;;;;;4.65;0.50;;;8.50;99.90;;;;;;4933142;29;20468;-83
2023/04/26 09:45:33;;;;;;;1.88;0.50;;;8.80;99.90;;;;;;4949412;28;20048;-83
2023/04/26 09:48:24;;;;;;;4.32;0.63;;;8.60;99.90;;;;;;4933818;29;20032;-83
2023/04/26 09:50:52;;;;;;;3.75;0.70;;;8.40;99.90;;;;;;4948737;29;20089;-85
2023/04/26 09:53:40;;;;;;;2.95;0.45;;;8.30;99.90;;;;;;4934824;29;20187;-84
2023/04/26 09:56:12;;;;;;;3.03;0.50;;;8.30;99.90;;;;;;4934774;29;20039;-85
2023/04/26 09:58:57;;;;;;;2.33;0.40;;;8.10;99.90;;;;;;4947428;29;20031;-85
2023/04/26 10:01:24;;;;;;;4.00;0.60;;;8.10;99.90;;;;;;4948428;28;20053;-84
2023/04/26 10:03:50;;;;;;;4.25;0.73;;;8.10;99.90;;;;;;4946529;29;20032;-83
2023/04/26 10:06:16;;;;;;;2.33;0.50;;;8.00;99.90;;;;;;4950893;28;20027;-86
2023/04/26 10:08:42;;;;;;;3.42;0.60;;;8.10;99.90;;;;;;4944741;29;20538;-83
2023/04/26 10:11:12;;;;;;;3.00;0.63;;;8.00;99.90;;;;;;4947304;29;20032;-83
2023/04/26 10:13:41;;;;;;;2.65;0.60;;;8.00;99.90;;;;;;4943766;28;20031;-84
2023/04/26 10:16:08;;;;;;;3.27;0.70;;;7.90;99.90;;;;;;4927406;29;20043;-84
2023/04/26 10:18:35;;;;;;;2.92;0.50;;;8.10;99.90;;;;;;4933455;29;20133;-84
2023/04/26 10:21:27;;;;;;;4.13;0.60;;;8.30;99.90;;;;;;4950039;28;20062;-84
2023/04/26 10:23:53;;;;;;;4.40;0.55;;;8.40;99.90;;;;;;4944942;29;20039;-84
2023/04/26 10:26:48;;;;;;;3.53;0.50;;;8.40;99.90;;;;;;4950631;28;20122;-86
2023/04/26 10:29:14;;;;;;;6.05;0.88;;;8.50;99.90;;;;;;4944422;29;20035;-86
2023/04/26 10:32:05;;;;;;;5.57;0.95;;;8.60;99.90;;;;;;4945827;29;20032;-86
2023/04/26 10:34:32;;;;;;;4.20;0.50;;;8.40;99.90;;;;;;4932500;29;20027;-82
2023/04/26 10:37:12;;;;;;;1.95;0.52;;;8.40;99.90;;;;;;4930643;29;20043;-83
2023/04/26 10:39:39;;;;;;;;;;;8.30;99.90;;;;;;4944468;28;20053;-82
2023/04/26 10:42:23;;;;;;;3.58;0.55;;;8.30;99.90;;;;;;4944750;28;19981;-81
2023/04/26 10:44:59;;;;;;;3.33;0.60;;;8.30;99.90;;;;;;4946645;28;20426;-82
2023/04/26 10:47:30;;;;;;;2.65;0.63;;;8.40;99.90;;;;;;4918880;28;22002;-82
2023/04/26 10:50:08;;;;;;;4.93;0.55;;;8.10;99.90;;;;;;4930864;28;20389;-82
2023/04/26 10:53:14;;;;;;;2.53;0.77;;;8.10;99.90;;;;;;4950329;28;20030;-83
2023/04/26 10:55:41;;;;;;;5.05;0.70;;;8.20;99.90;;;;;;4952502;28;20050;-82
2023/04/26 10:58:33;;;;;;;3.60;0.50;;;8.20;99.90;;;;;;4932903;28;20039;-83
2023/04/26 11:01:07;;;;;;;4.95;0.55;;;8.20;99.90;;;;;;4969889;28;20027;-85
2023/04/26 11:03:33;;;;;;;2.38;0.50;;;8.40;99.90;;;;;;4942948;28;20034;-83
2023/04/26 11:05:58;;;;;;;2.10;0.50;;;8.20;99.90;;;;;;4932991;28;20038;-85
2023/04/26 11:08:24;;;;;;;3.03;0.82;;;8.10;99.90;;;;;;4950643;28;20031;-84
2023/04/26 11:10:57;;;;;;;3.72;0.70;;;8.10;99.90;;;;;;4952480;28;20096;-84
2023/04/26 11:13:22;;;;;;;4.43;0.75;;;8.10;99.90;;;;;;4951248;28;20534;-85
2023/04/26 11:15:53;;;;;;;2.65;0.60;;;8.20;99.90;;;;;;4951471;28;20166;-84
2023/04/26 11:18:20;;;;;;;2.90;0.52;;;8.10;99.90;;;;;;4970403;28;20497;-85
2023/04/26 11:20:45;;;;;;;6.85;0.88;;;8.30;99.90;;;;;;4934889;28;20042;-85
2023/04/26 11:23:12;;;;;;;3.50;0.60;;;8.30;99.90;;;;;;4949946;28;20095;-84
2023/04/26 11:25:40;;;;;;;3.17;0.65;;;8.50;99.90;;;;;;4936209;28;20027;-86
2023/04/26 11:28:06;;;;;;;3.30;1.02;;;8.70;99.90;;;;;;4944193;28;20031;-84
2023/04/26 11:30:32;;;;;;;6.05;0.80;;;8.70;99.90;;;;;;4949023;28;20534;-85
2023/04/26 11:33:05;;;;;;;3.22;0.70;;;8.60;99.90;;;;;;4950974;28;20058;-85
2023/04/26 11:35:34;;;;;;;2.75;0.80;;;9.00;99.90;;;;;;4952354;28;20027;-84
2023/04/26 11:38:04;;;;;;;5.53;0.68;;;9.40;99.90;;;;;;4952874;28;20106;-84
2023/04/26 11:40:31;;;;;;;4.43;0.95;;;9.00;99.90;;;;;;4969284;28;20030;-82
2023/04/26 11:43:01;;;;;;;3.50;0.70;;;8.90;99.90;;;;;;4935276;28;20197;-82
2023/04/26 11:45:27;;;;;;;3.28;0.80;;;9.00;99.90;;;;;;4948633;28;20555;-82
2023/04/26 11:47:54;;;;;;;2.75;0.98;;;9.00;99.90;;;;;;4952773;28;20203;-81
2023/04/26 11:50:22;;;;;;;3.53;1.40;;;9.20;99.90;;;;;;4952585;28;20043;-83
2023/04/26 11:52:48;;;;;;;4.93;1.17;;;9.30;99.90;;;;;;4932607;28;20030;-82
2023/04/26 11:55:14;;;;;;;4.82;0.90;;;9.50;99.90;;;;;;4945096;28;20030;-82
2023/04/26 11:57:39;;;;;;;2.83;0.65;;;9.50;99.90;;;;;;4932881;28;20137;-84
2023/04/26 12:00:13;;;;;;;3.20;0.50;;;9.50;99.90;;;;;;4952746;28;20030;-83
2023/04/26 12:02:49;;;;;;;3.13;0.60;;;9.60;99.90;;;;;;4952815;28;20035;-82
2023/04/26 12:05:22;;;;;;;2.00;0.65;;;9.50;99.90;;;;;;4956355;28;20042;-82
2023/04/26 12:07:55;;;;;;;3.47;1.02;;;9.70;99.90;;;;;;4936630;28;20134;-81
2023/04/26 12:10:25;;;;;;;3.30;0.77;;;9.70;99.90;;;;;;4956017;28;20030;-82
2023/04/26 12:12:53;;;;;;;1.70;0.60;;;9.60;99.90;;;;;;4950776;28;20038;-83
2023/04/26 12:15:22;;;;;;;2.22;0.50;;;9.60;99.90;;;;;;4972690;28;20034;-82
2023/04/26 12:17:59;;;;;;;2.22;0.50;;;10.00;99.90;;;;;;4955512;28;20097;-82
2023/04/26 12:20:33;;;;;;;4.25;0.60;;;9.70;99.90;;;;;;4954789;28;20102;-82
2023/04/26 12:23:05;;;;;;;3.13;1.05;;;9.70;99.90;;;;;;4936949;28;20023;-83
2023/04/26 12:25:36;;;;;;;3.65;0.68;;;9.50;99.90;;;;;;4955737;28;20085;-82
2023/04/26 12:28:03;;;;;;;2.35;0.73;;;9.60;99.90;;;;;;4937761;28;20043;-82
2023/04/26 12:30:30;;;;;;;6.68;0.73;;;9.60;99.90;;;;;;4936723;28;20031;-82
2023/04/26 12:33:05;;;;;;;2.30;0.50;;;9.30;99.90;;;;;;4953911;28;20035;-82
2023/04/26 12:35:31;;;;;;;2.28;0.47;;;9.70;99.90;;;;;;4951341;28;20266;-83
2023/04/26 12:37:59;;;;;;;3.03;0.50;;;10.00;99.90;;;;;;4955188;28;20053;-82
2023/04/26 12:40:28;;;;;;;2.55;0.50;;;9.40;99.90;;;;;;4946301;28;20073;-82
2023/04/26 12:42:55;;;;;;;2.90;0.80;;;9.70;99.90;;;;;;4955355;28;20038;-82
2023/04/26 12:45:22;;;;;;;3.08;0.40;;;9.70;99.90;;;;;;4953438;28;20506;-81
2023/04/26 12:47:49;;;;;;;5.82;0.98;;;10.30;99.90;;;;;;4971335;28;20031;-82
2023/04/26 12:50:15;;;;;;;2.20;0.50;;;10.70;99.90;;;;;;4936711;28;20375;-83
2023/04/26 12:52:42;;;;;;;2.20;0.43;;;10.90;99.90;;;;;;4936442;28;20031;-83
2023/04/26 12:55:10;;;;;;;2.63;0.40;;;11.30;99.90;;;;;;4935806;28;20033;-83
2023/04/26 12:57:37;;;;;;;3.22;0.45;;;12.00;99.90;;;;;;4936682;28;20031;-82
2023/04/26 13:00:08;;;;;;;2.42;0.47;;;11.10;99.90;;;;;;4935762;28;20054;-82